Time;durP1;ratioP1;P1;durP2;ratioP2;P2;SDS_P1;SDS_P2;PMS_P1;PMS_P2;Temp;Humidity;BMP_temperature;BMP_pressure;BME280_temperature;BME280_humidity;BME280_pressure;Samples;Min_cycle;Max_cycle;Signal;HPM_P1;HPM_P2
2023/01/11 00:01:44;;;;;;;19.27;9.65;;;;;;;8.62;100.00;100431.78;4983462;28;20418;-86
2023/01/11 00:04:09;;;;;;;19.00;9.48;;;;;;;8.68;100.00;100451.78;4985412;28;20041;-85
2023/01/11 00:06:34;;;;;;;18.05;10.10;;;;;;;8.69;100.00;100434.66;4988090;28;21599;-85
2023/01/11 00:09:00;;;;;;;18.60;8.23;;;;;;;8.58;100.00;100435.66;4991237;28;20050;-85
2023/01/11 00:11:25;;;;;;;13.55;8.07;;;;;;;8.51;100.00;100414.06;4989081;28;20076;-85
2023/01/11 00:13:50;;;;;;;18.27;9.05;;;;;;;8.63;100.00;100416.63;4988195;28;20516;-85
2023/01/11 00:16:16;;;;;;;17.73;9.43;;;;;;;8.65;100.00;100422.66;4995410;28;20034;-85
2023/01/11 00:18:42;;;;;;;19.02;9.80;;;;;;;8.67;100.00;100428.66;4999550;28;20085;-85
2023/01/11 00:21:08;;;;;;;17.58;9.27;;;;;;;8.77;100.00;100426.38;4989398;28;20138;-85
2023/01/11 00:23:34;;;;;;;15.85;8.98;;;;;;;8.75;100.00;100433.16;4988107;28;20026;-86
2023/01/11 00:26:09;;;;;;;15.27;8.80;;;;;;;8.67;100.00;100419.47;4983196;28;20387;-86
2023/01/11 00:28:34;;;;;;;20.95;10.35;;;;;;;8.72;100.00;100411.56;4981887;28;20022;-85
2023/01/11 00:31:00;;;;;;;20.10;10.60;;;;;;;8.68;100.00;100418.28;4981471;28;20535;-86
2023/01/11 00:33:25;;;;;;;19.20;9.82;;;;;;;8.69;100.00;100408.75;4983237;28;20041;-86
2023/01/11 00:35:51;;;;;;;19.77;10.00;;;;;;;8.77;100.00;100404.06;4998944;28;20034;-86
2023/01/11 00:47:55;;;;;;;18.45;9.82;;;;;;;8.68;100.00;100399.56;4982777;28;20631;-85
2023/01/11 00:49:16;;;;;;;20.45;10.20;;;;;;;8.80;100.00;100397.75;4983051;28;20052;-85
2023/01/11 00:51:41;;;;;;;21.88;10.95;;;;;;;8.81;100.00;100396.53;4983651;28;20030;-86
2023/01/11 00:54:07;;;;;;;18.00;9.57;;;;;;;8.78;100.00;100388.94;4985828;28;20037;-85
2023/01/11 00:56:32;;;;;;;22.58;11.18;;;;;;;8.80;100.00;100386.56;4978782;28;20062;-85
2023/01/11 00:58:57;;;;;;;20.45;10.18;;;;;;;8.77;100.00;100384.53;4984230;28;20122;-86
2023/01/11 01:01:23;;;;;;;20.02;9.93;;;;;;;8.80;100.00;100375.41;4984115;28;20030;-86
2023/01/11 01:03:48;;;;;;;20.08;10.00;;;;;;;8.85;100.00;100387.03;4982182;28;20081;-85
2023/01/11 01:06:13;;;;;;;23.25;9.82;;;;;;;8.90;100.00;100383.13;4985533;28;20027;-85
2023/01/11 01:08:39;;;;;;;19.55;10.20;;;;;;;8.82;100.00;100396.16;4983913;28;20205;-85
2023/01/11 01:11:04;;;;;;;17.83;9.50;;;;;;;8.88;100.00;100389.06;4983486;28;20070;-85
2023/01/11 01:16:13;;;;;;;21.40;9.73;;;;;;;8.99;100.00;100385.63;4997254;28;20512;-85
2023/01/11 01:18:39;;;;;;;24.30;10.55;;;;;;;9.06;100.00;100377.34;4982223;28;20062;-85
2023/01/11 01:21:04;;;;;;;20.35;10.02;;;;;;;8.95;100.00;100368.81;5000372;28;20497;-85
2023/01/11 01:23:30;;;;;;;23.30;10.60;;;;;;;9.07;100.00;100387.34;4992721;28;20041;-85
2023/01/11 01:25:55;;;;;;;19.75;8.52;;;;;;;8.89;100.00;100389.88;4982051;28;20120;-85
2023/01/11 01:28:21;;;;;;;23.58;9.05;;;;;;;8.94;100.00;100364.44;4986078;28;20073;-86
2023/01/11 01:30:52;;;;;;;21.42;10.05;;;;;;;9.08;100.00;100386.13;5003232;28;20034;-85
2023/01/11 01:33:18;;;;;;;19.02;10.02;;;;;;;9.01;100.00;100386.84;4989506;28;20463;-85
2023/01/11 01:35:43;;;;;;;21.45;10.45;;;;;;;9.05;100.00;100375.75;4987244;28;20113;-85
2023/01/11 01:38:08;;;;;;;22.25;10.75;;;;;;;9.04;100.00;100380.50;4999027;28;20114;-85
2023/01/11 01:40:44;;;;;;;17.40;9.82;;;;;;;9.08;100.00;100372.97;4998706;28;20057;-85
2023/01/11 01:43:11;;;;;;;22.75;9.65;;;;;;;9.25;100.00;100384.75;4985592;28;20038;-85
2023/01/11 01:45:36;;;;;;;15.85;8.23;;;;;;;9.08;100.00;100386.94;4987288;28;20042;-85
2023/01/11 01:48:04;;;;;;;19.98;9.73;;;;;;;9.24;100.00;100391.53;4987552;28;20035;-85
2023/01/11 01:50:39;;;;;;;21.70;8.20;;;;;;;9.15;100.00;100387.03;4992556;28;20089;-84
2023/01/11 01:53:13;;;;;;;19.23;8.18;;;;;;;9.30;100.00;100393.59;4985904;28;20037;-85
2023/01/11 01:55:42;;;;;;;17.65;8.27;;;;;;;9.30;100.00;100378.84;4993140;28;20026;-86
2023/01/11 01:58:12;;;;;;;19.75;8.70;;;;;;;9.26;100.00;100376.00;4989907;28;20030;-85
2023/01/11 02:00:41;;;;;;;21.92;8.80;;;;;;;9.31;100.00;100386.81;4989272;28;20038;-85
2023/01/11 02:03:09;;;;;;;19.85;8.38;;;;;;;9.32;100.00;100387.63;4989086;28;20039;-85
2023/01/11 02:05:35;;;;;;;17.13;8.05;;;;;;;9.27;100.00;100369.19;4988472;28;20022;-84
2023/01/11 02:08:07;;;;;;;15.27;6.93;;;;;;;9.20;100.00;100362.75;4987286;28;20053;-84
2023/01/11 02:10:32;;;;;;;13.40;7.20;;;;;;;9.32;100.00;100380.06;4985763;28;20038;-84
2023/01/11 02:13:08;;;;;;;15.80;6.68;;;;;;;9.36;100.00;100374.53;4989424;28;20040;-84
2023/01/11 02:15:34;;;;;;;14.85;6.55;;;;;;;9.46;100.00;100378.59;4999969;28;20026;-84
2023/01/11 02:18:00;;;;;;;13.05;7.85;;;;;;;9.36;100.00;100368.94;5000396;28;20034;-84
2023/01/11 02:20:53;;;;;;;11.80;5.75;;;;;;;9.29;100.00;100378.00;5000169;28;20458;-84
2023/01/11 02:23:45;;;;;;;9.65;4.47;;;;;;;9.40;100.00;100380.91;4998597;28;20487;-84
2023/01/11 02:26:36;;;;;;;5.78;4.50;;;;;;;9.35;100.00;100376.47;4985998;28;20113;-84
2023/01/11 02:29:27;;;;;;;7.55;3.90;;;;;;;9.45;100.00;100374.22;4962969;28;20094;-84
2023/01/11 02:32:28;;;;;;;8.00;3.75;;;;;;;9.46;100.00;100370.22;4985461;28;20041;-84
2023/01/11 02:35:03;;;;;;;10.70;3.88;;;;;;;9.53;100.00;100365.50;4971781;28;20580;-84
2023/01/11 02:37:40;;;;;;;9.48;3.60;;;;;;;9.60;100.00;100373.16;4985160;28;20034;-84
2023/01/11 02:40:44;;;;;;;7.63;4.00;;;;;;;9.62;100.00;100365.19;4982364;28;20054;-84
2023/01/11 02:47:02;;;;;;;5.00;3.15;;;;;;;9.67;100.00;100373.22;4987303;28;20048;-84
2023/01/11 02:49:52;;;;;;;5.28;3.10;;;;;;;9.60;100.00;100373.16;4937749;28;20122;-83
2023/01/11 02:52:28;;;;;;;6.00;2.92;;;;;;;9.60;100.00;100377.94;4930555;28;21344;-84
2023/01/11 02:54:57;;;;;;;5.43;2.33;;;;;;;9.44;100.00;100365.00;4993203;28;20620;-83
2023/01/11 02:57:25;;;;;;;4.72;2.55;;;;;;;9.53;100.00;100373.91;4988895;28;20466;-83
2023/01/11 02:59:53;;;;;;;4.28;2.75;;;;;;;9.53;100.00;100371.09;4990988;28;20026;-84
2023/01/11 03:02:19;;;;;;;5.65;2.28;;;;;;;9.64;100.00;100367.63;4991211;28;20414;-83
2023/01/11 03:04:44;;;;;;;4.00;2.30;;;;;;;9.56;100.00;100384.28;5007190;28;20036;-83
2023/01/11 03:07:20;;;;;;;5.10;2.25;;;;;;;9.48;100.00;100382.59;4983789;28;20027;-84
2023/01/11 03:09:57;;;;;;;3.90;2.30;;;;;;;9.72;100.00;100392.44;4993412;28;20053;-83
2023/01/11 03:12:51;;;;;;;4.90;3.10;;;;;;;9.67;100.00;100401.16;4987327;28;20037;-84
2023/01/11 03:15:32;;;;;;;;;;;;;;;9.65;100.00;100394.38;4994575;28;20069;-84
2023/01/11 03:18:16;;;;;;;6.50;2.33;;;;;;;9.67;100.00;100400.38;4991481;28;19913;-84
2023/01/11 03:20:49;;;;;;;5.05;1.73;;;;;;;9.71;100.00;100396.41;5005886;28;20390;-84
2023/01/11 03:23:28;;;;;;;2.70;1.58;;;;;;;9.69;100.00;100403.59;4985788;28;20087;-84
2023/01/11 03:26:28;;;;;;;5.07;2.47;;;;;;;9.72;100.00;100394.44;4990553;28;20038;-84
2023/01/11 03:29:12;;;;;;;3.63;2.30;;;;;;;9.67;100.00;100403.16;4973589;28;20034;-84
2023/01/11 03:31:47;;;;;;;2.92;1.90;;;;;;;9.79;100.00;100397.31;4981003;28;20023;-83
2023/01/11 03:34:31;;;;;;;3.33;2.30;;;;;;;9.80;100.00;100410.06;4985927;28;20029;-83
2023/01/11 03:37:09;;;;;;;3.95;1.85;;;;;;;9.75;100.00;100413.22;4984893;28;20482;-84
2023/01/11 03:39:46;;;;;;;5.97;2.15;;;;;;;9.73;100.00;100405.22;4986385;28;20030;-84
2023/01/11 03:42:15;;;;;;;2.90;2.10;;;;;;;9.73;100.00;100410.03;4985218;28;20498;-83
2023/01/11 03:44:49;;;;;;;2.92;2.13;;;;;;;9.75;100.00;100414.03;5002360;28;20030;-82
2023/01/11 03:47:17;;;;;;;4.60;2.97;;;;;;;9.80;100.00;100420.47;4981479;28;20082;-83
2023/01/11 03:49:48;;;;;;;4.55;2.63;;;;;;;9.92;100.00;100429.38;4998639;28;20037;-83
2023/01/11 03:52:16;;;;;;;5.55;3.08;;;;;;;9.85;100.00;100434.09;4997914;28;20037;-82
2023/01/11 03:54:43;;;;;;;5.85;3.17;;;;;;;9.98;100.00;100432.63;4987368;28;20109;-82
2023/01/11 03:57:16;;;;;;;6.93;3.08;;;;;;;9.82;100.00;100441.25;5002344;28;20058;-82
2023/01/11 03:59:42;;;;;;;7.75;2.83;;;;;;;9.80;100.00;100438.03;4991786;28;20479;-82
2023/01/11 04:02:19;;;;;;;12.02;4.22;;;;;;;9.88;100.00;100436.91;4988520;28;20084;-83
2023/01/11 04:04:45;;;;;;;10.90;5.18;;;;;;;9.87;100.00;100421.34;5001841;28;20041;-82
2023/01/11 04:07:10;;;;;;;14.32;5.65;;;;;;;9.87;100.00;100414.97;4991629;28;20034;-83
2023/01/11 04:09:35;;;;;;;17.70;6.78;;;;;;;10.04;100.00;100438.69;4986297;28;20225;-82
2023/01/11 04:12:01;;;;;;;17.50;7.20;;;;;;;9.92;100.00;100434.97;4984967;28;20031;-83
2023/01/11 04:14:26;;;;;;;19.05;8.05;;;;;;;10.09;100.00;100432.72;4988079;28;20037;-83
2023/01/11 04:16:52;;;;;;;27.33;9.20;;;;;;;10.00;100.00;100426.66;4986905;28;20058;-82
2023/01/11 04:19:17;;;;;;;26.75;9.82;;;;;;;10.12;100.00;100448.75;4986827;28;20368;-82
2023/01/11 04:21:42;;;;;;;25.20;9.40;;;;;;;10.08;100.00;100436.72;4993281;28;20368;-83
2023/01/11 04:24:08;;;;;;;28.85;11.32;;;;;;;10.04;100.00;100445.06;4992435;28;20034;-83
2023/01/11 04:26:33;;;;;;;23.35;10.35;;;;;;;10.11;100.00;100439.53;5007818;28;20054;-84
2023/01/11 04:28:58;;;;;;;31.20;11.57;;;;;;;10.19;100.00;100446.00;4983361;28;20030;-83
2023/01/11 04:31:24;;;;;;;23.35;9.95;;;;;;;10.06;100.00;100439.09;4980212;28;20153;-83
2023/01/11 04:33:49;;;;;;;29.13;10.95;;;;;;;10.08;100.00;100450.72;4979683;28;20120;-83
2023/01/11 04:36:15;;;;;;;34.28;11.85;;;;;;;10.07;100.00;100446.28;4984325;28;20058;-83
2023/01/11 04:38:40;;;;;;;29.92;10.40;;;;;;;10.18;100.00;100466.75;4993439;28;20165;-83
2023/01/11 04:43:52;;;;;;;32.47;11.48;;;;;;;10.23;100.00;100474.81;4985119;28;20512;-83
2023/01/11 04:46:17;;;;;;;35.50;11.43;;;;;;;10.10;100.00;100462.31;4984408;28;20080;-84
2023/01/11 04:48:42;;;;;;;34.30;11.88;;;;;;;10.17;100.00;100473.56;4997307;28;20026;-84
2023/01/11 04:51:08;;;;;;;23.00;10.77;;;;;;;10.19;100.00;100476.78;4980000;28;20716;-83
2023/01/11 04:53:35;;;;;;;27.00;10.32;;;;;;;10.19;100.00;100490.75;4999003;28;20057;-83
2023/01/11 04:56:01;;;;;;;30.02;10.05;;;;;;;10.17;100.00;100493.94;4983702;28;20121;-83
2023/01/11 04:58:28;;;;;;;26.05;11.25;;;;;;;10.15;100.00;100490.72;5003190;28;20069;-84
2023/01/11 05:00:53;;;;;;;32.95;12.10;;;;;;;10.20;100.00;100492.34;4985417;28;20038;-85
2023/01/11 05:03:19;;;;;;;29.77;10.63;;;;;;;10.14;100.00;100491.09;4983959;28;20027;-84
2023/01/11 05:05:56;;;;;;;27.58;9.55;;;;;;;10.11;100.00;100487.06;4983236;28;20129;-84
2023/01/11 05:08:23;;;;;;;27.17;10.25;;;;;;;10.11;100.00;100489.88;4999357;28;20026;-83
2023/01/11 05:10:57;;;;;;;31.88;10.55;;;;;;;10.15;100.00;100489.91;4979795;28;20125;-84
2023/01/11 05:13:42;;;;;;;29.02;10.65;;;;;;;10.14;100.00;100491.09;4985769;28;20034;-83
2023/01/11 05:16:16;;;;;;;29.88;10.13;;;;;;;10.10;100.00;100490.28;4987830;28;20038;-84
2023/01/11 05:18:48;;;;;;;31.05;9.82;;;;;;;10.18;100.00;100497.53;4986582;28;20364;-84
2023/01/11 05:21:16;;;;;;;36.20;10.32;;;;;;;10.17;100.00;100495.94;4992706;28;20117;-83
2023/01/11 05:23:42;;;;;;;23.63;9.15;;;;;;;10.09;100.00;100503.44;4991732;28;20080;-85
2023/01/11 05:26:10;;;;;;;33.72;10.55;;;;;;;10.07;100.00;100508.59;4991175;28;20041;-85
2023/01/11 05:28:35;;;;;;;30.42;9.30;;;;;;;10.12;100.00;100510.28;5010382;28;20037;-85
2023/01/11 05:31:01;;;;;;;32.97;10.35;;;;;;;10.01;100.00;100501.75;4996164;28;20045;-87
2023/01/11 05:33:27;;;;;;;27.58;8.32;;;;;;;9.92;100.00;100499.25;5000616;28;20041;-86
2023/01/11 05:36:00;;;;;;;30.38;7.75;;;;;;;10.00;100.00;100510.53;4991369;28;20034;-85
2023/01/11 05:38:26;;;;;;;22.02;7.93;;;;;;;10.01;100.00;100509.34;5006813;28;20085;-85
2023/01/11 05:40:55;;;;;;;20.98;6.07;;;;;;;10.08;100.00;100515.03;4994368;28;20030;-85
2023/01/11 05:43:21;;;;;;;43.90;9.13;;;;;;;10.04;100.00;100516.97;4993228;28;20029;-84
2023/01/11 05:45:46;;;;;;;27.95;7.82;;;;;;;10.06;100.00;100526.59;4993021;28;20038;-85
2023/01/11 05:48:11;;;;;;;35.22;7.78;;;;;;;10.04;100.00;100525.38;4989718;28;20545;-84
2023/01/11 05:50:37;;;;;;;28.88;6.22;;;;;;;9.94;100.00;100524.06;4994831;28;20092;-85
2023/01/11 05:53:02;;;;;;;33.25;6.93;;;;;;;9.98;100.00;100538.88;4995087;28;20479;-85
2023/01/11 05:55:27;;;;;;;26.15;6.10;;;;;;;10.06;100.00;100528.59;4985351;28;20145;-84
2023/01/11 05:57:53;;;;;;;30.83;5.50;;;;;;;9.97;100.00;100532.50;4974916;28;20251;-85
2023/01/11 06:00:18;;;;;;;24.23;6.70;;;;;;;10.02;100.00;100536.94;5004189;28;20124;-85
2023/01/11 06:02:44;;;;;;;26.38;6.57;;;;;;;9.97;100.00;100540.06;4993004;28;20375;-84
2023/01/11 06:05:09;;;;;;;25.27;6.38;;;;;;;10.02;100.00;100538.94;5007549;28;20030;-84
2023/01/11 06:07:34;;;;;;;28.73;5.50;;;;;;;9.92;100.00;100532.03;4994457;28;20536;-85
2023/01/11 06:10:00;;;;;;;41.97;7.30;;;;;;;9.95;100.00;100539.63;5010310;28;20178;-84
2023/01/11 06:12:25;;;;;;;30.85;6.90;;;;;;;9.87;100.00;100538.75;4988014;28;20092;-84
2023/01/11 06:14:50;;;;;;;32.53;5.38;;;;;;;9.92;100.00;100532.03;4992693;28;20030;-84
2023/01/11 06:17:16;;;;;;;30.92;6.60;;;;;;;9.89;100.00;100530.78;5010762;28;20057;-84
2023/01/11 06:19:41;;;;;;;39.58;7.18;;;;;;;9.86;100.00;100533.53;4993953;28;20031;-84
2023/01/11 06:22:06;;;;;;;37.50;6.20;;;;;;;9.89;100.00;100546.78;4991046;28;20034;-84
2023/01/11 06:24:32;;;;;;;41.05;5.93;;;;;;;9.80;100.00;100544.25;5007294;28;20382;-84
2023/01/11 06:26:57;;;;;;;28.15;5.75;;;;;;;9.88;100.00;100540.34;5006710;28;20022;-84
2023/01/11 06:29:22;;;;;;;46.03;8.23;;;;;;;9.80;100.00;100527.47;4986868;28;20030;-84
2023/01/11 06:31:48;;;;;;;24.75;6.25;;;;;;;9.80;100.00;100549.84;4986053;28;20033;-84
2023/01/11 06:34:13;;;;;;;30.17;6.45;;;;;;;9.86;100.00;100548.31;5005086;28;20373;-84
2023/01/11 06:36:38;;;;;;;36.75;6.10;;;;;;;9.83;100.00;100554.69;5004393;28;20034;-84
2023/01/11 06:39:04;;;;;;;46.28;8.20;;;;;;;9.84;100.00;100550.69;4988226;28;20041;-84
2023/01/11 06:41:30;;;;;;;35.70;5.65;;;;;;;9.86;100.00;100553.91;4987989;28;22275;-84
2023/01/11 06:43:56;;;;;;;40.67;5.93;;;;;;;9.79;100.00;100567.00;4988527;28;20045;-84
2023/01/11 06:46:21;;;;;;;38.88;6.68;;;;;;;9.74;100.00;100568.16;4988574;28;20490;-85
2023/01/11 06:48:47;;;;;;;36.42;5.90;;;;;;;9.79;100.00;100581.78;4980541;28;20037;-86
2023/01/11 06:51:14;;;;;;;40.17;6.82;;;;;;;9.76;100.00;100574.97;4989117;28;20022;-84
2023/01/11 06:53:41;;;;;;;33.38;5.25;;;;;;;9.73;100.00;100583.31;4990243;28;20037;-84
2023/01/11 06:56:09;;;;;;;45.45;6.15;;;;;;;9.74;100.00;100590.50;4989522;28;20406;-85
2023/01/11 06:58:36;;;;;;;31.90;5.95;;;;;;;9.71;100.00;100580.06;4984345;28;20032;-84
2023/01/11 07:01:01;;;;;;;39.05;7.95;;;;;;;9.77;100.00;100596.13;4981980;28;20479;-84
2023/01/11 07:03:27;;;;;;;31.35;5.15;;;;;;;9.73;100.00;100584.09;4990497;28;20042;-85
2023/01/11 07:05:55;;;;;;;47.95;7.72;;;;;;;9.69;100.00;100582.44;4989602;28;20038;-85
2023/01/11 07:08:25;;;;;;;28.80;6.63;;;;;;;9.85;100.00;100597.03;4987527;28;20375;-87
2023/01/11 07:10:52;;;;;;;33.70;6.55;;;;;;;10.54;100.00;100601.44;4982418;28;20122;-89
2023/01/11 07:13:18;;;;;;;30.88;5.43;;;;;;;10.94;100.00;100606.22;4987530;28;20046;-84
2023/01/11 07:15:44;;;;;;;33.35;6.45;;;;;;;10.15;100.00;100605.38;5001994;28;20030;-84
2023/01/11 07:18:10;;;;;;;34.83;6.82;;;;;;;9.94;100.00;100617.13;4987839;28;20034;-85
2023/01/11 07:20:35;;;;;;;38.33;7.10;;;;;;;9.85;100.00;100613.81;5000220;28;20073;-84
2023/01/11 07:23:01;;;;;;;42.47;6.80;;;;;;;9.74;100.00;100612.88;4990575;28;20018;-84
2023/01/11 07:25:28;;;;;;;35.30;6.40;;;;;;;9.81;100.00;100626.94;5000234;28;20574;-84
2023/01/11 07:27:58;;;;;;;23.50;6.43;;;;;;;9.75;100.00;100625.66;4993213;28;20041;-84
2023/01/11 07:30:25;;;;;;;27.65;5.75;;;;;;;9.76;100.00;100627.25;4987482;28;20046;-84
2023/01/11 07:32:50;;;;;;;28.38;5.35;;;;;;;9.71;100.00;100613.63;5001928;28;20038;-84
2023/01/11 07:35:16;;;;;;;33.47;5.88;;;;;;;9.68;100.00;100622.78;4985986;28;20516;-84
2023/01/11 07:37:41;;;;;;;31.85;7.25;;;;;;;9.68;100.00;100631.16;5005154;28;20076;-84
2023/01/11 07:40:07;;;;;;;29.77;6.40;;;;;;;9.71;100.00;100641.56;4990382;28;20121;-85
2023/01/11 07:45:17;;;;;;;28.50;6.15;;;;;;;9.65;100.00;100665.44;4979958;28;20046;-84
2023/01/11 07:47:42;;;;;;;44.15;6.70;;;;;;;9.59;100.00;100659.34;4987330;28;20442;-84
2023/01/11 07:50:08;;;;;;;42.22;6.97;;;;;;;9.60;100.00;100668.56;4999525;28;20034;-85
2023/01/11 07:52:33;;;;;;;45.22;5.95;;;;;;;9.62;100.00;100682.97;4989818;28;20091;-84
2023/01/11 07:55:01;;;;;;;36.78;7.43;;;;;;;9.56;100.00;100691.66;5005968;28;20022;-84
2023/01/11 07:57:30;;;;;;;36.55;7.78;;;;;;;9.56;100.00;100691.66;5004362;28;20549;-85
2023/01/11 07:59:55;;;;;;;30.00;6.00;;;;;;;9.53;100.00;100686.81;4984549;28;20400;-84
2023/01/11 08:02:21;;;;;;;30.17;7.03;;;;;;;9.52;100.00;100681.59;4988269;28;20474;-84
2023/01/11 08:04:46;;;;;;;40.42;6.03;;;;;;;9.45;100.00;100661.94;4999305;28;20073;-85
2023/01/11 08:07:11;;;;;;;25.98;5.75;;;;;;;9.39;100.00;100669.84;4983077;28;20034;-85
2023/01/11 08:09:37;;;;;;;43.95;5.60;;;;;;;9.47;100.00;100681.94;4991128;28;20049;-84
2023/01/11 08:14:47;;;;;;;27.23;6.18;;;;;;;9.43;100.00;100692.25;4990596;28;20570;-84
2023/01/11 08:17:14;;;;;;;43.58;8.00;;;;;;;9.40;100.00;100696.56;4998037;28;20121;-84
2023/01/11 08:19:45;;;;;;;34.80;6.40;;;;;;;9.47;100.00;100687.53;4986146;28;20085;-87
2023/01/11 08:22:11;;;;;;;40.17;6.60;;;;;;;9.43;100.00;100704.22;5006670;28;20469;-82
2023/01/11 08:24:36;;;;;;;32.15;6.65;;;;;;;9.35;100.00;100694.13;4985985;28;20164;-84
2023/01/11 08:27:03;;;;;;;36.92;6.10;;;;;;;9.37;100.00;100719.69;5003320;28;20080;-83
2023/01/11 08:29:28;;;;;;;32.92;5.75;;;;;;;9.33;100.00;100710.44;4992206;28;20034;-84
2023/01/11 08:31:54;;;;;;;32.70;6.47;;;;;;;9.35;100.00;100720.06;4988807;28;20018;-84
2023/01/11 08:34:20;;;;;;;28.65;5.95;;;;;;;9.27;100.00;100720.31;4982689;28;20029;-84
2023/01/11 08:36:45;;;;;;;48.95;6.90;;;;;;;9.24;100.00;100743.41;4990721;28;20085;-83
2023/01/11 08:39:11;;;;;;;30.25;6.80;;;;;;;9.21;100.00;100735.75;4977836;28;20022;-84
2023/01/11 08:41:37;;;;;;;31.58;6.63;;;;;;;9.20;100.00;100734.16;4985055;28;20043;-84
2023/01/11 08:44:04;;;;;;;34.45;5.40;;;;;;;9.18;100.00;100753.28;4990703;28;20113;-84
2023/01/11 08:46:32;;;;;;;44.58;6.35;;;;;;;9.18;100.00;100750.47;4992037;28;20022;-84
2023/01/11 08:48:57;;;;;;;36.75;7.18;;;;;;;9.07;100.00;100753.09;4983790;28;20038;-83
2023/01/11 08:51:23;;;;;;;32.40;5.60;;;;;;;9.05;100.00;100761.81;4981246;28;20031;-83
2023/01/11 08:53:50;;;;;;;35.20;5.75;;;;;;;9.03;100.00;100758.59;4979838;28;20026;-84
2023/01/11 08:56:16;;;;;;;33.33;5.97;;;;;;;9.01;100.00;100757.34;4986750;28;20482;-84
2023/01/11 08:58:41;;;;;;;30.17;5.72;;;;;;;8.95;100.00;100754.03;4987679;28;20036;-84
2023/01/11 09:01:08;;;;;;;38.53;6.80;;;;;;;8.97;100.00;100762.06;4984286;28;20037;-84
2023/01/11 09:03:34;;;;;;;30.60;6.45;;;;;;;8.92;100.00;100772.34;4991002;28;20038;-84
2023/01/11 09:06:00;;;;;;;40.08;6.15;;;;;;;8.74;100.00;100774.78;4987824;28;20035;-83
2023/01/11 09:08:26;;;;;;;39.60;5.68;;;;;;;8.86;100.00;100776.63;4988077;28;20027;-83
2023/01/11 09:10:52;;;;;;;37.95;5.18;;;;;;;8.79;100.00;100775.66;4988975;28;20048;-84
2023/01/11 09:13:18;;;;;;;21.90;5.10;;;;;;;8.73;100.00;100777.94;5007911;28;20508;-83
2023/01/11 09:15:45;;;;;;;41.50;6.25;;;;;;;8.62;100.00;100777.75;4990302;28;20045;-83
2023/01/11 09:18:11;;;;;;;43.05;8.13;;;;;;;8.65;100.00;100793.72;4987142;28;20065;-83
2023/01/11 09:20:37;;;;;;;29.13;6.60;;;;;;;8.65;100.00;100795.72;4976496;28;20026;-86
2023/01/11 09:23:02;;;;;;;34.90;7.18;;;;;;;8.69;100.00;100800.19;4989484;28;20030;-87
2023/01/11 09:25:27;;;;;;;37.63;8.43;;;;;;;8.62;100.00;100800.06;4991718;28;20184;-86
2023/01/11 09:27:53;;;;;;;34.40;5.75;;;;;;;8.64;100.00;100796.88;4993235;28;20494;-86
2023/01/11 09:30:21;;;;;;;45.70;5.72;;;;;;;8.68;100.00;100809.72;4986714;28;20062;-86
2023/01/11 09:32:47;;;;;;;36.67;5.80;;;;;;;8.68;100.00;100815.31;5003879;28;20065;-86
2023/01/11 09:35:15;;;;;;;20.05;4.70;;;;;;;8.68;100.00;100809.72;5002020;28;20380;-86
2023/01/11 09:37:44;;;;;;;39.55;7.18;;;;;;;8.67;100.00;100816.50;4992129;28;20514;-86
2023/01/11 09:40:19;;;;;;;46.25;6.55;;;;;;;8.69;100.00;100808.56;4998683;28;20037;-86
2023/01/11 09:42:50;;;;;;;38.72;6.70;;;;;;;8.57;100.00;100800.34;4987012;28;20042;-86
2023/01/11 09:45:23;;;;;;;33.83;6.13;;;;;;;8.68;100.00;100804.16;4999736;28;20034;-86
2023/01/11 09:48:22;;;;;;;32.08;5.38;;;;;;;8.65;100.00;100820.84;4985529;28;20026;-86
2023/01/11 09:50:48;;;;;;;23.30;5.30;;;;;;;8.62;100.00;100810.38;4984378;28;20134;-86
2023/01/11 09:53:37;;;;;;;26.92;5.82;;;;;;;8.57;100.00;100808.72;4986733;28;20490;-86
2023/01/11 09:56:05;;;;;;;31.95;6.63;;;;;;;8.68;100.00;100815.31;4988055;28;20394;-86
2023/01/11 09:58:59;;;;;;;37.28;6.35;;;;;;;8.58;100.00;100810.34;4982612;28;20546;-86
2023/01/11 10:01:33;;;;;;;28.73;5.25;;;;;;;8.55;100.00;100828.59;4983380;28;20438;-86
2023/01/11 10:04:22;;;;;;;33.05;6.88;;;;;;;8.55;100.00;100825.81;4984155;28;20234;-87
2023/01/11 10:07:10;;;;;;;43.75;7.53;;;;;;;8.57;100.00;100817.06;4989152;28;20029;-86
2023/01/11 10:09:50;;;;;;;49.20;7.38;;;;;;;8.64;100.00;100824.78;4994112;28;20093;-86
2023/01/11 10:12:33;;;;;;;39.13;7.80;;;;;;;8.65;100.00;100816.06;4993130;28;20026;-86
2023/01/11 10:15:11;;;;;;;35.95;7.65;;;;;;;8.59;100.00;100803.56;5009741;28;20113;-86
2023/01/11 10:17:55;;;;;;;31.20;4.53;;;;;;;8.70;100.00;100821.34;4991811;28;20030;-86
2023/01/11 10:20:29;;;;;;;38.65;5.70;;;;;;;8.67;100.00;100818.50;4994336;28;20029;-86
2023/01/11 10:23:03;;;;;;;28.23;5.38;;;;;;;8.69;100.00;100816.13;5007144;28;20449;-86
2023/01/11 10:25:40;;;;;;;41.13;7.82;;;;;;;8.68;100.00;100806.94;4989824;28;20034;-86
2023/01/11 10:28:16;;;;;;;31.50;6.25;;;;;;;8.77;100.00;100833.81;4992912;28;20038;-86
2023/01/11 10:33:48;;;;;;;;;;;;;;;8.80;100.00;100828.31;4978760;28;20034;-86
2023/01/11 10:37:17;;;;;;;34.92;5.75;;;;;;;8.82;100.00;100839.94;4990505;28;19924;-85
2023/01/11 10:40:06;;;;;;;43.00;7.50;;;;;;;8.80;100.00;100835.91;5007230;28;20061;-86
2023/01/11 10:42:44;;;;;;;41.97;6.53;;;;;;;8.98;100.00;100839.88;5007197;28;20181;-82
2023/01/11 10:45:49;;;;;;;27.40;5.28;;;;;;;8.95;100.00;100843.38;5005993;28;20041;-83
2023/01/11 10:48:35;;;;;;;50.90;8.15;;;;;;;8.93;100.00;100859.69;4947117;29;20134;-83
2023/01/11 10:51:25;;;;;;;37.72;7.97;;;;;;;8.95;100.00;100858.13;4982801;28;20387;-82
2023/01/11 10:54:12;;;;;;;34.05;5.85;;;;;;;8.94;100.00;100853.75;4979345;28;20034;-82
2023/01/11 10:56:55;;;;;;;34.10;7.20;;;;;;;8.97;100.00;100857.78;4988911;28;20503;-83
2023/01/11 10:59:40;;;;;;;37.28;5.32;;;;;;;8.97;100.00;100852.19;4984892;28;20029;-83
2023/01/11 11:02:30;;;;;;;36.03;5.70;;;;;;;8.96;100.00;100864.56;4997827;28;20081;-82
2023/01/11 11:05:13;;;;;;;27.73;7.30;;;;;;;8.95;100.00;100851.75;4984238;28;20041;-83
2023/01/11 11:08:04;;;;;;;30.30;5.20;;;;;;;9.01;100.00;100857.88;4986609;28;20513;-83
2023/01/11 11:10:43;;;;;;;39.60;6.50;;;;;;;9.07;100.00;100868.34;5001873;28;20038;-83
2023/01/11 11:13:27;;;;;;;35.63;5.30;;;;;;;9.10;100.00;100864.03;4981527;28;20049;-82
2023/01/11 11:15:52;;;;;;;35.45;6.15;;;;;;;9.14;100.00;100871.28;4986255;28;20446;-82
2023/01/11 11:18:17;;;;;;;37.70;6.25;;;;;;;9.21;100.00;100867.03;4987968;28;20030;-82
2023/01/11 11:20:45;;;;;;;32.53;5.45;;;;;;;9.26;100.00;100866.75;4986234;28;20033;-83
2023/01/11 11:23:15;;;;;;;28.00;7.90;;;;;;;9.28;100.00;100867.19;4989632;28;20038;-82
2023/01/11 11:25:50;;;;;;;40.53;6.75;;;;;;;9.21;100.00;100873.41;4984310;28;20360;-82
2023/01/11 11:28:21;;;;;;;26.98;5.20;;;;;;;9.23;100.00;100867.47;4994959;28;20160;-83
2023/01/11 11:30:48;;;;;;;40.95;7.82;;;;;;;9.23;100.00;100850.69;4985092;28;20216;-83
2023/01/11 11:33:45;;;;;;;29.30;5.63;;;;;;;9.19;100.00;100867.38;4991227;28;20038;-82
2023/01/11 11:36:12;;;;;;;38.83;5.82;;;;;;;9.19;100.00;100867.38;4972241;28;20042;-83
2023/01/11 11:38:40;;;;;;;38.42;7.88;;;;;;;9.20;100.00;100854.25;4981303;28;20034;-82
2023/01/11 11:41:12;;;;;;;29.80;6.55;;;;;;;9.12;100.00;100859.66;4984169;28;20395;-83
2023/01/11 11:43:39;;;;;;;40.05;5.95;;;;;;;9.11;100.00;100860.88;4982330;28;20034;-82
2023/01/11 11:46:14;;;;;;;36.33;5.72;;;;;;;9.21;100.00;100865.03;4988078;28;20030;-82
2023/01/11 11:48:41;;;;;;;30.10;5.20;;;;;;;9.22;100.00;100860.28;5008304;28;20430;-82
2023/01/11 11:51:15;;;;;;;52.00;7.43;;;;;;;9.23;100.00;100867.47;5005134;28;20037;-83
2023/01/11 11:53:47;;;;;;;45.17;5.75;;;;;;;9.23;100.00;100867.47;4988341;28;20085;-82
2023/01/11 11:56:29;;;;;;;47.85;6.03;;;;;;;9.27;100.00;100871.13;4988628;28;20384;-83
2023/01/11 11:58:56;;;;;;;41.95;5.53;;;;;;;9.33;100.00;100866.88;4989273;28;20026;-82